Time;durP1;ratioP1;P1;durP2;ratioP2;P2;SDS_P1;SDS_P2;PMS_P1;PMS_P2;Temp;Humidity;BMP_temperature;BMP_pressure;BME280_temperature;BME280_humidity;BME280_pressure;Samples;Min_cycle;Max_cycle;Signal;HPM_P1;HPM_P2
2020/12/17 00:00:23;;;;;;;20.92;16.25;;;10.70;93.80;;;;;;4993229;28;20098;-73
2020/12/17 00:02:49;;;;;;;20.15;14.93;;;10.60;93.70;;;;;;4993676;28;20388;-73
2020/12/17 00:05:15;;;;;;;13.07;11.43;;;10.70;93.70;;;;;;4993574;28;20068;-73
2020/12/17 00:07:41;;;;;;;11.80;9.73;;;10.70;93.70;;;;;;4991946;28;20058;-73
2020/12/17 00:10:09;;;;;;;12.95;9.07;;;10.70;94.00;;;;;;4993518;28;20120;-72
2020/12/17 00:12:40;;;;;;;11.32;9.32;;;10.70;93.70;;;;;;4993551;28;20074;-72
2020/12/17 00:15:07;;;;;;;11.52;9.10;;;10.70;93.70;;;;;;4991560;28;20034;-72
2020/12/17 00:17:42;;;;;;;12.38;8.95;;;10.70;93.70;;;;;;4993841;28;20026;-72
2020/12/17 00:20:09;;;;;;;10.88;9.63;;;10.70;93.70;;;;;;4992914;28;20022;-72
2020/12/17 00:22:36;;;;;;;12.23;9.40;;;10.70;93.70;;;;;;4993591;28;20033;-72
2020/12/17 00:25:03;;;;;;;8.95;8.02;;;10.70;93.80;;;;;;4993301;28;20348;-71
2020/12/17 00:27:29;;;;;;;12.07;9.18;;;10.70;93.80;;;;;;4993122;28;20027;-72
2020/12/17 00:29:54;;;;;;;11.07;9.68;;;10.70;93.80;;;;;;4993251;28;20057;-72
2020/12/17 00:32:20;;;;;;;12.48;11.18;;;10.60;93.80;;;;;;4992054;28;20074;-75
2020/12/17 00:34:45;;;;;;;12.40;11.07;;;10.60;93.80;;;;;;5025513;28;20060;-74
2020/12/17 00:37:11;;;;;;;12.60;10.55;;;10.60;93.90;;;;;;5032395;28;20025;-73
2020/12/17 00:39:36;;;;;;;14.32;12.82;;;10.60;93.90;;;;;;5032769;28;20025;-74
2020/12/17 00:42:05;;;;;;;12.80;10.20;;;10.60;93.90;;;;;;5031930;28;20057;-73
2020/12/17 00:44:31;;;;;;;13.70;9.60;;;10.60;93.90;;;;;;5015252;28;20018;-74
2020/12/17 00:46:57;;;;;;;11.57;10.38;;;10.60;93.90;;;;;;5032396;28;20079;-74
2020/12/17 00:49:22;;;;;;;11.40;10.15;;;10.60;94.00;;;;;;5032013;28;20421;-72
2020/12/17 00:51:48;;;;;;;17.08;10.65;;;10.60;93.90;;;;;;5014815;28;20025;-72
2020/12/17 00:54:14;;;;;;;10.38;8.73;;;10.60;94.00;;;;;;5032317;28;20033;-73
2020/12/17 00:56:46;;;;;;;10.93;8.63;;;10.60;94.00;;;;;;5014202;28;20025;-72
2020/12/17 00:59:12;;;;;;;9.75;8.30;;;10.60;94.00;;;;;;5032369;28;20026;-72
2020/12/17 01:01:38;;;;;;;9.90;8.70;;;10.60;94.00;;;;;;5032520;28;20455;-72
2020/12/17 01:04:03;;;;;;;11.80;8.40;;;10.60;93.90;;;;;;5031403;28;20129;-72
2020/12/17 01:06:29;;;;;;;10.15;7.90;;;10.60;93.90;;;;;;5032482;28;20053;-72
2020/12/17 01:08:54;;;;;;;13.98;10.57;;;10.60;93.90;;;;;;5014508;28;20034;-72
2020/12/17 01:11:30;;;;;;;9.40;8.50;;;10.60;93.90;;;;;;5031784;28;20099;-72
2020/12/17 01:13:57;;;;;;;9.80;8.43;;;10.60;93.90;;;;;;5035584;28;20034;-72
2020/12/17 01:16:23;;;;;;;12.25;10.38;;;10.60;93.90;;;;;;5035843;28;20017;-72
2020/12/17 01:18:49;;;;;;;13.10;8.38;;;10.60;93.90;;;;;;5036237;28;20025;-72
2020/12/17 01:21:15;;;;;;;11.75;8.95;;;10.60;93.90;;;;;;5035889;28;20025;-72
2020/12/17 01:23:40;;;;;;;10.68;8.18;;;10.60;93.90;;;;;;5017494;28;20029;-72
2020/12/17 01:26:08;;;;;;;10.93;8.43;;;10.60;93.90;;;;;;5035935;28;20043;-72
2020/12/17 01:28:34;;;;;;;12.15;9.18;;;10.60;93.90;;;;;;5018420;28;20478;-72
2020/12/17 01:31:03;;;;;;;10.23;8.65;;;10.60;93.80;;;;;;5035119;28;20018;-71
2020/12/17 01:33:29;;;;;;;11.35;7.95;;;10.60;93.90;;;;;;5035681;28;20048;-71
2020/12/17 01:35:54;;;;;;;10.77;9.40;;;10.60;93.90;;;;;;5035551;28;20021;-71
2020/12/17 01:38:20;;;;;;;12.23;9.80;;;10.60;93.90;;;;;;5035231;28;20025;-71
2020/12/17 01:40:46;;;;;;;10.02;9.02;;;10.50;93.90;;;;;;5035886;28;20022;-71
2020/12/17 01:43:12;;;;;;;11.55;7.93;;;10.60;93.90;;;;;;5035504;28;20029;-72
2020/12/17 01:45:37;;;;;;;9.13;7.60;;;10.50;93.90;;;;;;5035315;28;20104;-72
2020/12/17 01:48:03;;;;;;;7.18;6.47;;;10.60;93.90;;;;;;5035509;28;20044;-72
2020/12/17 01:50:29;;;;;;;8.20;7.30;;;10.50;93.90;;;;;;5035739;28;20029;-72
2020/12/17 01:52:55;;;;;;;7.88;6.95;;;10.60;94.00;;;;;;5034508;28;20045;-72
2020/12/17 01:55:20;;;;;;;9.70;6.78;;;10.60;94.20;;;;;;5035865;28;20026;-72
2020/12/17 01:57:47;;;;;;;8.38;7.05;;;10.60;93.90;;;;;;5035697;28;20029;-72
2020/12/17 02:00:14;;;;;;;8.60;6.75;;;10.60;94.00;;;;;;5034695;28;20446;-72
2020/12/17 02:02:41;;;;;;;9.82;6.82;;;10.60;93.90;;;;;;5035595;28;20017;-72
2020/12/17 02:05:07;;;;;;;8.35;7.18;;;10.60;94.00;;;;;;5035309;28;20026;-71
2020/12/17 02:07:33;;;;;;;11.52;7.35;;;10.60;94.00;;;;;;5034846;28;20022;-71
2020/12/17 02:10:00;;;;;;;8.82;7.78;;;10.60;93.90;;;;;;5035147;28;20522;-71
2020/12/17 02:12:45;;;;;;;8.05;6.38;;;10.60;93.90;;;;;;5035159;28;20033;-71
2020/12/17 02:15:11;;;;;;;10.35;7.35;;;10.60;93.90;;;;;;5035091;28;20021;-71
2020/12/17 02:17:36;;;;;;;8.35;7.18;;;10.60;93.90;;;;;;5017656;28;20500;-71
2020/12/17 02:20:05;;;;;;;8.40;7.47;;;10.60;93.90;;;;;;5034170;28;20022;-71
2020/12/17 02:22:30;;;;;;;7.63;6.80;;;10.60;94.00;;;;;;5017320;28;20013;-71
2020/12/17 02:24:56;;;;;;;12.82;7.55;;;10.60;94.00;;;;;;5034309;28;20393;-71
2020/12/17 02:27:21;;;;;;;11.05;7.97;;;10.60;94.00;;;;;;5034335;28;20030;-73
2020/12/17 02:29:47;;;;;;;10.55;6.95;;;10.60;94.00;;;;;;5035060;28;20033;-71
2020/12/17 02:32:12;;;;;;;10.77;7.93;;;10.60;94.00;;;;;;5034768;28;20029;-77
2020/12/17 02:34:38;;;;;;;9.18;7.25;;;10.60;94.00;;;;;;5016464;28;20053;-71
2020/12/17 02:37:03;;;;;;;10.98;6.78;;;10.60;94.00;;;;;;5034574;28;20026;-71
2020/12/17 02:39:29;;;;;;;11.88;7.43;;;10.60;94.00;;;;;;5034891;28;20359;-71
2020/12/17 02:41:54;;;;;;;7.78;6.95;;;10.60;94.10;;;;;;5015648;28;20516;-71
2020/12/17 02:44:20;;;;;;;8.82;6.75;;;10.60;94.10;;;;;;5017281;28;20025;-71
2020/12/17 02:46:45;;;;;;;9.38;6.70;;;10.70;94.00;;;;;;5034817;28;20235;-71
2020/12/17 02:49:11;;;;;;;7.45;6.40;;;10.70;94.10;;;;;;5033662;28;20022;-71
2020/12/17 02:51:39;;;;;;;9.30;6.47;;;10.70;94.00;;;;;;5017090;28;20083;-71
2020/12/17 02:54:05;;;;;;;10.45;7.22;;;10.70;94.00;;;;;;5034183;28;20394;-71
2020/12/17 02:56:30;;;;;;;6.68;5.93;;;10.70;94.00;;;;;;5033995;28;20108;-73
2020/12/17 02:58:56;;;;;;;7.43;6.68;;;10.70;94.10;;;;;;5016438;28;20033;-71
2020/12/17 03:01:22;;;;;;;8.07;6.20;;;10.70;94.10;;;;;;5016583;28;20033;-71
2020/12/17 03:03:47;;;;;;;7.88;7.07;;;10.70;94.10;;;;;;5015908;28;20024;-71
2020/12/17 03:06:13;;;;;;;8.07;6.75;;;10.70;94.10;;;;;;5016728;28;20017;-71
2020/12/17 03:08:38;;;;;;;8.32;7.00;;;10.70;94.10;;;;;;5033718;28;20155;-71
2020/12/17 03:11:04;;;;;;;9.32;6.63;;;10.70;94.10;;;;;;5033134;28;20033;-71
2020/12/17 03:13:29;;;;;;;6.97;6.30;;;10.80;94.10;;;;;;5032585;28;20552;-71
2020/12/17 03:15:55;;;;;;;8.52;6.65;;;10.80;94.10;;;;;;5013528;28;20032;-72
2020/12/17 03:18:21;;;;;;;12.38;7.75;;;10.80;94.10;;;;;;5020076;28;20022;-71
2020/12/17 03:20:47;;;;;;;9.55;7.13;;;10.80;94.40;;;;;;5033536;28;20041;-71
2020/12/17 03:23:12;;;;;;;11.18;6.75;;;10.70;94.10;;;;;;5037650;28;20029;-71
2020/12/17 03:25:38;;;;;;;7.07;6.38;;;10.80;94.10;;;;;;5043802;28;20083;-71
2020/12/17 03:28:03;;;;;;;7.35;6.55;;;10.80;94.10;;;;;;5031323;28;20052;-71
2020/12/17 03:30:29;;;;;;;7.65;6.18;;;10.80;94.10;;;;;;5038526;28;20069;-71
2020/12/17 03:32:55;;;;;;;8.85;6.72;;;10.80;94.20;;;;;;5011980;28;20042;-71
2020/12/17 03:35:21;;;;;;;7.20;6.40;;;10.80;94.10;;;;;;5051506;28;20027;-70
2020/12/17 03:37:46;;;;;;;8.85;6.88;;;10.80;94.10;;;;;;5046982;28;20035;-70
2020/12/17 03:40:12;;;;;;;8.75;6.57;;;10.80;94.10;;;;;;5033412;28;20021;-70
2020/12/17 03:42:39;;;;;;;7.50;6.60;;;10.80;94.10;;;;;;5033739;28;20026;-70
2020/12/17 03:45:04;;;;;;;6.70;6.00;;;10.80;94.10;;;;;;5032685;28;20360;-71
2020/12/17 03:47:30;;;;;;;8.93;6.00;;;10.80;94.10;;;;;;5032984;28;20071;-70
2020/12/17 03:49:55;;;;;;;8.13;6.18;;;10.90;94.10;;;;;;5033086;28;20382;-71
2020/12/17 03:52:21;;;;;;;8.10;6.18;;;10.80;94.10;;;;;;5014877;28;20077;-71
2020/12/17 03:54:46;;;;;;;6.80;6.00;;;10.80;94.10;;;;;;5033406;28;20493;-71
2020/12/17 03:57:12;;;;;;;7.13;6.07;;;10.80;94.20;;;;;;5015194;28;20462;-71
2020/12/17 03:59:37;;;;;;;7.03;6.38;;;10.90;94.20;;;;;;5014930;28;20077;-71
2020/12/17 04:02:03;;;;;;;7.45;5.75;;;10.80;94.20;;;;;;5032910;28;20033;-71
2020/12/17 04:04:28;;;;;;;6.97;5.60;;;10.80;94.20;;;;;;5032984;28;20083;-71
2020/12/17 04:06:54;;;;;;;7.75;5.55;;;10.80;94.20;;;;;;5014540;28;20014;-71
2020/12/17 04:09:19;;;;;;;7.43;5.45;;;10.90;94.30;;;;;;5033207;28;20025;-71
2020/12/17 04:11:45;;;;;;;6.57;5.82;;;10.90;94.30;;;;;;5015433;28;20022;-71
2020/12/17 04:14:10;;;;;;;9.55;5.82;;;10.90;94.20;;;;;;5032150;28;20398;-72
2020/12/17 04:16:36;;;;;;;7.68;5.45;;;10.80;94.20;;;;;;5033103;28;20022;-72
2020/12/17 04:19:01;;;;;;;9.90;6.05;;;10.90;94.30;;;;;;5032840;28;20033;-72
2020/12/17 04:21:27;;;;;;;6.38;5.07;;;10.90;94.30;;;;;;5014735;28;20101;-72
2020/12/17 04:23:52;;;;;;;8.48;5.57;;;10.90;94.30;;;;;;5032525;28;20079;-72
2020/12/17 04:26:18;;;;;;;8.57;5.47;;;10.90;94.30;;;;;;5032359;28;20057;-72
2020/12/17 04:28:43;;;;;;;8.82;6.10;;;10.80;94.30;;;;;;5032971;28;20040;-72
2020/12/17 04:31:09;;;;;;;7.15;6.00;;;10.90;94.40;;;;;;5032718;28;20022;-72
2020/12/17 04:33:34;;;;;;;6.40;5.35;;;10.80;94.30;;;;;;5014279;28;20053;-72
2020/12/17 04:36:00;;;;;;;12.52;6.40;;;10.80;94.30;;;;;;5014872;28;20025;-72
2020/12/17 04:38:27;;;;;;;8.82;6.68;;;10.80;94.40;;;;;;5032799;28;20021;-72
2020/12/17 04:40:53;;;;;;;6.93;6.10;;;10.80;94.40;;;;;;5031884;28;20378;-72
2020/12/17 04:43:18;;;;;;;7.60;6.45;;;10.80;94.50;;;;;;5032737;28;20036;-72
2020/12/17 04:45:44;;;;;;;8.50;6.13;;;10.80;94.50;;;;;;5032854;28;20026;-72
2020/12/17 04:48:14;;;;;;;8.43;5.82;;;10.80;94.60;;;;;;5034217;28;20029;-72
2020/12/17 04:50:40;;;;;;;7.50;6.18;;;10.90;94.60;;;;;;5036839;28;20094;-72
2020/12/17 04:53:10;;;;;;;7.68;5.65;;;10.80;94.60;;;;;;5036385;28;20118;-71
2020/12/17 04:55:39;;;;;;;8.90;5.85;;;10.80;94.70;;;;;;5018378;28;20080;-72
2020/12/17 04:58:08;;;;;;;6.07;5.32;;;10.80;94.70;;;;;;5036417;28;20403;-72
2020/12/17 05:00:40;;;;;;;9.35;6.10;;;10.80;94.80;;;;;;5036504;28;20072;-71
2020/12/17 05:03:11;;;;;;;7.32;5.70;;;10.80;94.80;;;;;;5035594;28;20116;-71
2020/12/17 05:05:37;;;;;;;7.03;5.65;;;10.80;94.80;;;;;;5036571;28;20025;-71
2020/12/17 05:08:02;;;;;;;7.53;5.97;;;10.80;94.80;;;;;;5018451;28;20083;-71
2020/12/17 05:10:28;;;;;;;8.88;6.13;;;10.90;94.80;;;;;;5035742;28;20125;-72
2020/12/17 05:12:53;;;;;;;6.55;5.75;;;10.80;94.90;;;;;;5036265;28;20037;-72
2020/12/17 05:15:23;;;;;;;9.48;6.13;;;10.90;95.00;;;;;;5036757;28;20047;-71
2020/12/17 05:17:49;;;;;;;8.50;6.53;;;10.90;95.00;;;;;;5036449;28;20026;-72
2020/12/17 05:20:16;;;;;;;6.82;5.47;;;10.90;95.00;;;;;;5036087;28;20478;-72
2020/12/17 05:22:46;;;;;;;7.97;5.68;;;10.90;95.00;;;;;;5035688;28;20029;-71
2020/12/17 05:25:12;;;;;;;10.63;5.68;;;10.90;95.00;;;;;;5035905;28;20033;-70
2020/12/17 05:27:40;;;;;;;7.78;5.63;;;10.80;95.00;;;;;;5018358;28;20026;-70
2020/12/17 05:30:06;;;;;;;8.60;5.75;;;10.90;95.10;;;;;;5035095;28;20390;-71
2020/12/17 05:32:32;;;;;;;9.38;5.90;;;10.80;95.10;;;;;;5017461;28;20029;-72
2020/12/17 05:35:01;;;;;;;8.93;5.70;;;10.80;95.20;;;;;;5035064;28;20536;-71
2020/12/17 05:37:29;;;;;;;5.80;5.13;;;10.80;95.20;;;;;;5033239;28;20029;-71
2020/12/17 05:39:58;;;;;;;8.35;6.15;;;10.80;95.30;;;;;;5033602;28;20025;-71
2020/12/17 05:42:25;;;;;;;6.50;5.10;;;10.70;95.30;;;;;;5033743;28;20045;-71
2020/12/17 05:44:50;;;;;;;7.13;5.30;;;10.70;95.40;;;;;;5033158;28;20030;-71
2020/12/17 05:47:16;;;;;;;6.78;5.45;;;10.70;95.40;;;;;;5033774;28;20428;-71
2020/12/17 05:49:42;;;;;;;8.68;5.63;;;10.70;95.50;;;;;;5016920;28;20025;-71
2020/12/17 05:52:10;;;;;;;6.60;4.82;;;10.70;95.50;;;;;;5034247;28;20021;-72
2020/12/17 05:54:39;;;;;;;6.30;5.68;;;10.70;95.60;;;;;;5035874;28;20101;-71
2020/12/17 05:57:12;;;;;;;6.70;5.43;;;10.70;95.60;;;;;;5035462;28;20112;-72
2020/12/17 05:59:39;;;;;;;7.28;5.68;;;10.70;95.60;;;;;;5033886;28;20495;-72
2020/12/17 06:02:24;;;;;;;6.85;6.10;;;10.70;95.60;;;;;;5035304;28;20563;-72
2020/12/17 06:05:08;;;;;;;6.78;5.50;;;10.70;95.70;;;;;;5035158;28;20055;-72
2020/12/17 06:07:41;;;;;;;6.88;6.18;;;10.70;95.60;;;;;;5035496;28;20155;-72
2020/12/17 06:10:08;;;;;;;9.45;5.85;;;10.70;95.60;;;;;;5017598;28;20032;-72
2020/12/17 06:12:36;;;;;;;6.47;5.88;;;10.80;95.60;;;;;;5034474;28;20048;-72
2020/12/17 06:15:05;;;;;;;6.63;6.00;;;10.80;95.60;;;;;;5035145;28;20060;-72
2020/12/17 06:17:38;;;;;;;8.07;5.97;;;10.80;95.60;;;;;;5035229;28;20029;-72
2020/12/17 06:20:06;;;;;;;7.85;5.80;;;10.80;95.60;;;;;;5034361;28;20032;-72
2020/12/17 06:22:35;;;;;;;6.65;6.05;;;10.80;95.60;;;;;;5035397;28;20017;-72
2020/12/17 06:25:01;;;;;;;7.78;5.70;;;10.80;95.60;;;;;;5034846;28;20104;-73
2020/12/17 06:27:30;;;;;;;8.98;6.10;;;10.80;95.60;;;;;;5034533;28;20025;-72
2020/12/17 06:30:06;;;;;;;8.27;6.72;;;10.80;95.60;;;;;;5034753;28;20386;-72
2020/12/17 06:32:36;;;;;;;6.95;6.25;;;10.80;95.60;;;;;;5017106;28;20475;-71
2020/12/17 06:35:08;;;;;;;7.65;6.93;;;10.80;95.60;;;;;;5013077;28;20562;-72
2020/12/17 06:37:35;;;;;;;44.83;8.23;;;10.80;95.60;;;;;;5015271;28;20022;-72
2020/12/17 06:40:02;;;;;;;7.95;6.65;;;10.80;95.60;;;;;;5014202;28;20037;-72
2020/12/17 06:42:34;;;;;;;7.95;7.25;;;10.80;95.60;;;;;;5015007;28;20037;-71
2020/12/17 06:44:59;;;;;;;;;;;10.80;95.50;;;;;;5015108;28;20026;-71
2020/12/17 06:47:29;;;;;;;8.10;7.32;;;10.70;95.50;;;;;;5014349;28;19909;-71
2020/12/17 06:50:14;;;;;;;7.95;7.18;;;10.70;95.50;;;;;;5012670;28;20459;-72
2020/12/17 06:53:09;;;;;;;8.10;7.40;;;10.70;95.50;;;;;;5022315;28;20045;-72
2020/12/17 06:55:40;;;;;;;8.52;7.55;;;10.70;95.60;;;;;;5018377;28;20057;-73
2020/12/17 06:58:06;;;;;;;9.10;8.23;;;10.70;95.60;;;;;;5025348;28;20095;-73
2020/12/17 07:00:32;;;;;;;8.85;7.95;;;10.70;95.60;;;;;;5025842;28;20474;-72
2020/12/17 07:02:58;;;;;;;9.30;8.43;;;10.60;95.50;;;;;;5026652;28;20076;-72
2020/12/17 07:05:33;;;;;;;9.80;8.95;;;10.60;95.40;;;;;;5023856;28;20052;-72
2020/12/17 07:07:59;;;;;;;9.63;8.68;;;10.50;95.40;;;;;;5011956;28;20018;-72
2020/12/17 07:10:31;;;;;;;9.27;8.48;;;10.50;95.50;;;;;;5014161;28;20049;-70
2020/12/17 07:12:57;;;;;;;9.07;8.10;;;10.50;95.50;;;;;;5020410;28;20394;-71
2020/12/17 07:15:33;;;;;;;9.77;8.88;;;10.50;95.40;;;;;;5033480;28;20093;-72
2020/12/17 07:18:25;;;;;;;10.35;9.35;;;10.40;95.40;;;;;;5033653;28;20049;-71
2020/12/17 07:21:01;;;;;;;;;;;10.40;95.40;;;;;;5024103;28;20095;-72
2020/12/17 07:23:40;;;;;;;10.50;9.50;;;10.40;95.40;;;;;;5015574;28;19912;-70
2020/12/17 07:26:15;;;;;;;11.13;10.10;;;10.40;95.40;;;;;;5013762;28;20048;-72
2020/12/17 07:28:41;;;;;;;12.80;11.60;;;10.40;95.50;;;;;;4999936;28;20475;-70
2020/12/17 07:31:22;;;;;;;14.05;12.70;;;10.40;95.50;;;;;;5013246;28;20025;-69
2020/12/17 07:33:47;;;;;;;14.52;13.25;;;10.50;95.60;;;;;;5022282;28;20056;-70
2020/12/17 07:36:13;;;;;;;13.02;11.90;;;10.60;95.50;;;;;;5014660;28;20021;-70
2020/12/17 07:38:39;;;;;;;13.38;12.15;;;10.60;95.40;;;;;;5033869;28;20482;-69
2020/12/17 07:41:05;;;;;;;13.52;12.35;;;10.70;95.30;;;;;;5033123;28;20547;-70
2020/12/17 07:43:48;;;;;;;13.40;12.15;;;10.70;95.20;;;;;;5032258;28;20033;-70
2020/12/17 07:46:32;;;;;;;13.63;12.32;;;10.70;95.20;;;;;;5013655;28;20018;-71
2020/12/17 07:48:58;;;;;;;13.93;12.52;;;10.80;95.10;;;;;;5013603;28;20097;-72
2020/12/17 07:51:27;;;;;;;13.85;12.55;;;10.80;95.10;;;;;;5013071;28;20549;-71
2020/12/17 07:53:53;;;;;;;14.88;13.57;;;10.80;95.00;;;;;;5013360;28;20041;-72
2020/12/17 07:56:20;;;;;;;14.85;13.45;;;10.90;94.90;;;;;;5019191;28;20370;-71
2020/12/17 07:58:46;;;;;;;14.63;13.43;;;10.90;94.90;;;;;;5014822;28;20381;-73
2020/12/17 08:01:13;;;;;;;13.95;12.73;;;10.90;94.80;;;;;;5024718;28;20026;-70
2020/12/17 08:03:45;;;;;;;14.23;13.00;;;10.90;94.80;;;;;;5031100;28;20151;-73
2020/12/17 08:06:14;;;;;;;14.10;12.80;;;11.00;94.80;;;;;;5013712;28;20402;-71
2020/12/17 08:08:42;;;;;;;14.98;13.68;;;11.00;94.80;;;;;;5030362;28;20029;-76
2020/12/17 08:11:09;;;;;;;14.82;13.43;;;11.10;94.80;;;;;;5031814;28;20093;-72
2020/12/17 08:13:35;;;;;;;14.30;12.93;;;11.10;94.60;;;;;;5013731;28;20139;-77
2020/12/17 08:16:04;;;;;;;14.70;13.40;;;11.20;94.50;;;;;;5014878;28;20482;-81
2020/12/17 08:18:36;;;;;;;13.27;12.18;;;11.20;94.40;;;;;;5032269;28;20018;-77
2020/12/17 08:21:11;;;;;;;14.52;13.32;;;11.20;94.30;;;;;;5033249;28;20029;-83
2020/12/17 08:23:44;;;;;;;13.27;12.07;;;11.20;94.30;;;;;;5033118;28;20030;-83
2020/12/17 08:26:12;;;;;;;13.32;12.10;;;11.20;94.30;;;;;;5031698;28;20017;-76
2020/12/17 08:28:40;;;;;;;13.40;12.10;;;11.20;94.20;;;;;;5033097;28;20092;-85
2020/12/17 08:31:11;;;;;;;13.88;12.57;;;11.20;94.20;;;;;;5032531;28;20071;-80
2020/12/17 08:33:42;;;;;;;14.18;12.77;;;11.20;94.30;;;;;;5013850;28;20037;-81
2020/12/17 08:36:09;;;;;;;12.93;11.80;;;11.20;94.20;;;;;;5032026;28;20551;-76
2020/12/17 08:38:35;;;;;;;12.77;11.75;;;11.30;94.20;;;;;;5032556;28;20280;-73
2020/12/17 08:41:04;;;;;;;12.65;11.55;;;11.20;94.10;;;;;;5031344;28;20025;-73
2020/12/17 08:43:36;;;;;;;13.02;11.73;;;11.30;94.10;;;;;;5014935;28;20112;-76
2020/12/17 08:46:02;;;;;;;11.20;10.23;;;11.30;94.20;;;;;;5031708;28;20031;-76
2020/12/17 08:48:31;;;;;;;12.05;10.95;;;11.20;94.10;;;;;;5013861;28;20397;-74
2020/12/17 08:50:57;;;;;;;11.57;9.98;;;11.20;94.20;;;;;;5032057;28;20040;-73
2020/12/17 08:53:24;;;;;;;10.40;9.43;;;11.30;94.20;;;;;;5032057;28;20037;-74
2020/12/17 08:56:08;;;;;;;11.95;10.80;;;11.30;94.10;;;;;;5030842;28;20021;-73
2020/12/17 08:58:43;;;;;;;10.93;9.88;;;11.30;94.10;;;;;;5031521;28;20486;-81
2020/12/17 09:01:26;;;;;;;9.77;8.77;;;11.20;94.00;;;;;;5011371;28;20029;-80
2020/12/17 09:03:53;;;;;;;10.35;9.35;;;11.20;94.00;;;;;;5030373;28;20021;-80
2020/12/17 09:06:27;;;;;;;10.70;9.70;;;11.20;94.00;;;;;;5031549;28;20165;-79
2020/12/17 09:08:53;;;;;;;13.00;10.10;;;11.10;94.10;;;;;;5013618;28;20021;-78
2020/12/17 09:11:34;;;;;;;13.70;9.73;;;11.10;94.10;;;;;;5014255;28;20031;-77
2020/12/17 09:14:05;;;;;;;10.85;9.85;;;11.10;94.10;;;;;;5003841;28;20128;-74
2020/12/17 09:16:32;;;;;;;10.27;8.85;;;11.10;94.10;;;;;;5031314;28;20033;-73
2020/12/17 09:18:59;;;;;;;9.73;8.75;;;11.00;94.10;;;;;;5031488;28;20071;-72
2020/12/17 09:21:25;;;;;;;11.00;9.43;;;11.00;94.20;;;;;;5032226;28;20025;-74
2020/12/17 09:23:55;;;;;;;10.98;8.80;;;11.10;94.20;;;;;;5031363;28;20107;-73
2020/12/17 09:26:21;;;;;;;10.65;8.60;;;11.10;94.20;;;;;;5031939;28;20064;-73
2020/12/17 09:28:57;;;;;;;10.38;8.40;;;11.10;94.20;;;;;;5030467;28;20065;-76
2020/12/17 09:31:28;;;;;;;9.18;8.38;;;11.10;94.10;;;;;;5032084;28;20032;-78
2020/12/17 09:34:16;;;;;;;8.93;8.02;;;11.20;94.10;;;;;;5032016;28;20361;-75
2020/12/17 09:36:45;;;;;;;11.55;7.75;;;11.20;94.10;;;;;;5035213;28;20029;-76
2020/12/17 09:39:13;;;;;;;8.38;7.57;;;11.30;94.10;;;;;;5017777;28;20035;-76
2020/12/17 09:41:50;;;;;;;9.30;6.68;;;11.30;93.90;;;;;;5036020;28;20412;-76
2020/12/17 09:44:29;;;;;;;11.18;7.25;;;11.40;93.90;;;;;;5034934;28;20470;-76
2020/12/17 09:46:54;;;;;;;8.90;6.60;;;11.40;93.70;;;;;;5017913;28;20112;-76
2020/12/17 09:49:25;;;;;;;10.68;6.53;;;11.40;93.50;;;;;;5018225;28;20453;-76
2020/12/17 09:52:05;;;;;;;8.48;6.38;;;11.40;93.40;;;;;;5017355;28;20025;-76
2020/12/17 09:54:31;;;;;;;8.43;6.40;;;11.30;93.50;;;;;;5018374;28;20079;-76
2020/12/17 09:57:02;;;;;;;7.78;6.38;;;11.30;93.30;;;;;;5016891;28;20417;-76
2020/12/17 09:59:27;;;;;;;7.35;4.55;;;11.30;93.50;;;;;;5018145;28;20080;-76
2020/12/17 10:02:00;;;;;;;8.27;5.93;;;11.30;93.40;;;;;;5035249;28;20013;-76
2020/12/17 10:04:27;;;;;;;8.02;5.88;;;11.40;93.30;;;;;;5035224;28;20025;-77
2020/12/17 10:06:53;;;;;;;7.85;5.78;;;11.40;93.30;;;;;;5035230;28;20481;-76
2020/12/17 10:09:20;;;;;;;7.65;5.55;;;11.50;93.30;;;;;;5017801;28;20048;-76
2020/12/17 10:11:50;;;;;;;9.70;5.80;;;11.50;93.10;;;;;;5017096;28;20014;-76
2020/12/17 10:14:17;;;;;;;7.70;5.80;;;11.40;92.90;;;;;;5035002;28;20064;-76
2020/12/17 10:16:43;;;;;;;8.15;4.68;;;11.40;92.90;;;;;;5017763;28;20029;-76
2020/12/17 10:19:09;;;;;;;7.13;5.25;;;11.50;92.90;;;;;;5016574;28;20390;-76
2020/12/17 10:21:36;;;;;;;6.72;5.07;;;11.50;92.90;;;;;;5017537;28;20059;-76
2020/12/17 10:24:03;;;;;;;8.00;4.97;;;11.50;92.90;;;;;;5034748;28;20030;-75
2020/12/17 10:26:29;;;;;;;11.27;5.50;;;11.50;92.90;;;;;;5034579;28;20097;-76
2020/12/17 10:28:54;;;;;;;9.43;5.65;;;11.40;92.70;;;;;;5034867;28;20026;-76
2020/12/17 10:31:20;;;;;;;6.82;5.30;;;11.40;92.80;;;;;;5034956;28;20026;-78
2020/12/17 10:33:46;;;;;;;5.90;4.32;;;11.40;92.80;;;;;;5033980;28;20049;-77
2020/12/17 10:36:11;;;;;;;8.38;4.78;;;11.40;92.80;;;;;;5017212;28;20105;-77
2020/12/17 10:38:37;;;;;;;9.95;4.82;;;11.40;92.60;;;;;;5017229;28;20101;-78
2020/12/17 10:41:02;;;;;;;8.32;5.10;;;11.40;92.70;;;;;;5016090;28;20482;-78
2020/12/17 10:43:28;;;;;;;9.98;4.68;;;11.40;92.70;;;;;;5016879;28;20026;-76
2020/12/17 10:45:54;;;;;;;5.72;4.10;;;11.40;92.80;;;;;;5033861;28;20037;-77
2020/12/17 10:48:19;;;;;;;7.43;4.78;;;11.50;92.70;;;;;;5016751;28;20030;-76
2020/12/17 10:50:47;;;;;;;6.43;4.68;;;11.50;92.30;;;;;;5017209;28;20030;-77
2020/12/17 10:53:13;;;;;;;7.70;4.60;;;11.50;92.30;;;;;;5015891;28;20034;-77
2020/12/17 10:55:38;;;;;;;7.35;4.70;;;11.60;92.30;;;;;;5016661;28;20438;-77
2020/12/17 10:58:06;;;;;;;11.20;5.25;;;11.60;92.30;;;;;;5016452;28;20025;-78
2020/12/17 11:00:31;;;;;;;8.32;4.55;;;11.70;92.20;;;;;;5034201;28;20087;-78
2020/12/17 11:02:57;;;;;;;7.32;4.32;;;11.70;92.20;;;;;;5016841;28;20474;-77
2020/12/17 11:05:22;;;;;;;7.75;4.85;;;11.70;92.00;;;;;;5034947;28;20418;-78
2020/12/17 11:07:48;;;;;;;10.95;4.93;;;11.80;91.90;;;;;;5016117;28;20028;-76
2020/12/17 11:10:13;;;;;;;8.45;5.20;;;11.80;91.80;;;;;;5016665;28;20022;-77
2020/12/17 11:12:39;;;;;;;7.70;4.78;;;11.80;91.60;;;;;;5034301;28;20382;-79
2020/12/17 11:15:05;;;;;;;10.43;5.30;;;11.80;91.70;;;;;;5015747;28;20025;-78
2020/12/17 11:17:30;;;;;;;8.93;4.68;;;11.80;91.80;;;;;;5016446;28;20047;-79
2020/12/17 11:19:56;;;;;;;9.80;5.15;;;11.90;91.70;;;;;;5034399;28;20026;-78
2020/12/17 11:22:22;;;;;;;17.67;6.15;;;11.90;91.60;;;;;;5016399;28;20020;-77
2020/12/17 11:24:47;;;;;;;8.02;4.30;;;11.90;91.40;;;;;;5016878;28;20083;-77
2020/12/17 11:27:13;;;;;;;7.88;4.13;;;11.90;91.40;;;;;;5033856;28;20485;-77
2020/12/17 11:29:38;;;;;;;11.10;4.50;;;11.90;91.30;;;;;;5015874;28;20486;-78
2020/12/17 11:32:04;;;;;;;8.95;4.22;;;12.00;91.30;;;;;;5015880;28;20061;-77
2020/12/17 11:34:29;;;;;;;12.05;4.75;;;12.00;91.40;;;;;;5015964;28;20077;-78
2020/12/17 11:36:55;;;;;;;9.18;5.07;;;12.10;91.20;;;;;;5015313;28;20017;-77
2020/12/17 11:39:21;;;;;;;7.38;4.03;;;12.10;91.00;;;;;;5033852;28;20421;-77
2020/12/17 11:41:47;;;;;;;8.23;5.13;;;12.10;91.00;;;;;;5033674;28;20021;-77
2020/12/17 11:44:14;;;;;;;12.02;5.22;;;12.00;90.80;;;;;;5015083;28;20037;-77
2020/12/17 11:46:39;;;;;;;8.77;4.50;;;12.00;91.20;;;;;;5015982;28;20029;-77
2020/12/17 11:49:05;;;;;;;9.93;4.78;;;11.90;91.10;;;;;;5015390;28;20039;-77
2020/12/17 11:51:30;;;;;;;8.85;4.50;;;11.80;91.10;;;;;;5015553;28;20074;-78
2020/12/17 11:53:56;;;;;;;9.35;4.43;;;11.70;91.10;;;;;;5015569;28;20037;-78
2020/12/17 11:56:22;;;;;;;9.32;4.50;;;11.70;91.20;;;;;;5032328;28;20025;-77
2020/12/17 11:58:47;;;;;;;9.77;4.28;;;11.70;91.20;;;;;;5033097;28;20060;-77
2020/12/17 12:01:13;;;;;;;8.98;5.13;;;11.60;91.20;;;;;;5015657;28;20022;-77
2020/12/17 12:03:40;;;;;;;8.68;4.65;;;11.60;91.30;;;;;;5015040;28;20030;-77
2020/12/17 12:06:05;;;;;;;10.07;4.47;;;11.60;91.30;;;;;;5015400;28;20108;-77
2020/12/17 12:08:31;;;;;;;7.68;4.57;;;11.50;91.40;;;;;;5015412;28;20056;-78
2020/12/17 12:10:57;;;;;;;10.00;5.25;;;11.50;91.40;;;;;;5014702;28;20033;-77
2020/12/17 12:13:23;;;;;;;9.18;4.40;;;11.60;91.50;;;;;;5015091;28;20111;-78
2020/12/17 12:15:49;;;;;;;9.88;4.60;;;11.50;91.40;;;;;;5033306;28;20017;-78
2020/12/17 12:18:15;;;;;;;10.60;4.70;;;11.60;91.50;;;;;;5014602;28;20029;-79
2020/12/17 12:20:41;;;;;;;9.32;4.60;;;11.60;91.50;;;;;;5036258;28;20028;-80
2020/12/17 12:23:06;;;;;;;11.23;5.13;;;11.60;91.40;;;;;;5019273;28;20117;-78
2020/12/17 12:25:35;;;;;;;11.85;4.50;;;11.60;91.50;;;;;;5034179;28;20052;-77
2020/12/17 12:28:01;;;;;;;9.07;4.85;;;11.70;91.50;;;;;;5033340;28;20057;-78
2020/12/17 12:30:26;;;;;;;8.23;4.20;;;11.70;91.30;;;;;;5033711;28;20060;-77
2020/12/17 12:32:52;;;;;;;10.50;4.97;;;11.70;91.10;;;;;;5032552;28;20021;-77
2020/12/17 12:35:18;;;;;;;10.05;4.85;;;11.70;91.00;;;;;;5017830;28;20041;-76
2020/12/17 12:37:43;;;;;;;10.93;4.45;;;11.70;91.10;;;;;;5016425;28;20041;-77
2020/12/17 12:40:09;;;;;;;13.15;4.55;;;11.60;91.10;;;;;;5015518;28;20018;-78
2020/12/17 12:42:34;;;;;;;11.52;4.78;;;11.60;91.20;;;;;;5016086;28;20033;-77